Shirley, United Kingdom
Current Conditions -  °F | °C
As of 8:20 AM on Monday 24 Nov 2014 (Local Time) from EGBB Reporting Station
Clear Clear  
Wind Chill: 27°   Ceiling: Unl
Heat Index: 32°   Visibility: 6mi
Dew Point: 32°   Wind: 5mph
Humidity: 100%   Direction: 150°SSE
Pressure: 30.3"   Gusts: NA
Location:  52.41°N, 1.83°W
Report Text: EGBB 240820Z 15004KT 100V200 CAVOK 00/M00 Q1026
Loading
Personal Weather Stations






























Interactive Weather Map New forecast layout! Learn more

10-Day Weather Forecast

Advertisements
Track Severe Weather on mobile